Time;durP1;ratioP1;P1;durP2;ratioP2;P2;SDS_P1;SDS_P2;PMS_P1;PMS_P2;Temp;Humidity;BMP_temperature;BMP_pressure;BME280_temperature;BME280_humidity;BME280_pressure;Samples;Min_cycle;Max_cycle;Signal;HPM_P1;HPM_P2
2022/03/22 00:00:31;;;;;;;8.17;4.63;;;;;;;;;;5051221;28;20289;-83
2022/03/22 00:02:58;;;;;;;7.07;5.07;;;;;;;;;;5051682;28;20202;-83
2022/03/22 00:05:25;;;;;;;6.03;5.33;;;;;;;;;;5051275;28;20307;-83
2022/03/22 00:07:53;;;;;;;8.83;5.60;;;;;;;;;;5051413;28;20281;-83
2022/03/22 00:10:20;;;;;;;8.20;4.90;;;;;;;;;;5051093;28;20284;-83
2022/03/22 00:12:49;;;;;;;6.90;5.67;;;;;;;;;;5051117;28;20320;-82
2022/03/22 00:15:17;;;;;;;7.80;5.57;;;;;;;;;;5050822;28;20682;-82
2022/03/22 00:17:46;;;;;;;6.97;5.93;;;;;;;;;;5051516;28;20240;-82
2022/03/22 00:20:15;;;;;;;6.37;5.47;;;;;;;;;;5054434;28;20293;-83
2022/03/22 00:22:42;;;;;;;7.07;6.23;;;;;;;;;;5055246;28;20198;-83
2022/03/22 00:25:11;;;;;;;6.27;5.30;;;;;;;;;;5054403;28;20209;-83
2022/03/22 00:27:51;;;;;;;7.57;5.67;;;;;;;;;;5054757;28;20194;-83
2022/03/22 00:30:19;;;;;;;7.50;5.70;;;;;;;;;;5054858;28;20247;-83
2022/03/22 00:32:53;;;;;;;6.13;5.43;;;;;;;;;;5054530;28;20194;-83
2022/03/22 00:35:23;;;;;;;7.57;5.40;;;;;;;;;;5054879;28;20190;-83
2022/03/22 00:37:51;;;;;;;7.73;4.90;;;;;;;;;;5054900;28;20222;-82
2022/03/22 00:40:19;;;;;;;8.17;6.27;;;;;;;;;;5054176;28;20201;-83
2022/03/22 00:42:47;;;;;;;6.30;5.40;;;;;;;;;;5054579;28;20674;-82
2022/03/22 00:45:16;;;;;;;7.77;5.83;;;;;;;;;;5054341;28;20256;-83
2022/03/22 00:47:45;;;;;;;6.53;5.80;;;;;;;;;;5054789;28;20190;-83
2022/03/22 00:50:14;;;;;;;8.23;6.17;;;;;;;;;;5054033;28;20285;-83
2022/03/22 00:52:41;;;;;;;6.63;5.57;;;;;;;;;;5054366;28;20205;-84
2022/03/22 00:55:09;;;;;;;8.87;6.07;;;;;;;;;;5054226;28;20224;-83
2022/03/22 00:57:37;;;;;;;11.60;5.83;;;;;;;;;;5054182;28;20316;-83
2022/03/22 01:00:07;;;;;;;7.47;5.33;;;;;;;;;;5053980;28;20659;-83
2022/03/22 01:02:38;;;;;;;7.97;5.63;;;;;;;;;;5054039;28;20197;-83
2022/03/22 01:05:07;;;;;;;6.90;5.57;;;;;;;;;;5054221;28;20225;-83
2022/03/22 01:07:36;;;;;;;6.97;5.30;;;;;;;;;;5054023;28;20197;-82
2022/03/22 01:10:05;;;;;;;8.87;5.53;;;;;;;;;;5053611;28;20285;-82
2022/03/22 01:12:34;;;;;;;9.63;6.57;;;;;;;;;;5053828;28;20240;-82
2022/03/22 01:15:01;;;;;;;8.70;6.33;;;;;;;;;;5054074;28;20641;-83
2022/03/22 01:17:30;;;;;;;6.80;5.40;;;;;;;;;;5053357;28;20221;-82
2022/03/22 01:19:57;;;;;;;6.80;5.57;;;;;;;;;;5053890;28;20194;-83
2022/03/22 01:22:25;;;;;;;9.70;5.40;;;;;;;;;;5053793;28;20209;-82
2022/03/22 01:24:53;;;;;;;7.60;5.93;;;;;;;;;;5053872;28;20233;-83
2022/03/22 01:27:22;;;;;;;8.63;6.37;;;;;;;;;;5053761;28;20696;-83
2022/03/22 01:29:49;;;;;;;9.47;6.10;;;;;;;;;;5052463;28;20243;-82
2022/03/22 01:32:16;;;;;;;10.73;6.83;;;;;;;;;;5053413;28;20281;-82
2022/03/22 01:34:43;;;;;;;9.17;6.83;;;;;;;;;;5053369;28;20559;-82
2022/03/22 01:37:11;;;;;;;8.40;5.70;;;;;;;;;;5053418;28;20229;-83
2022/03/22 01:39:38;;;;;;;6.97;5.73;;;;;;;;;;5052145;28;20729;-82
2022/03/22 01:42:08;;;;;;;9.13;6.43;;;;;;;;;;5052141;28;20209;-82
2022/03/22 01:44:35;;;;;;;8.43;6.57;;;;;;;;;;5053135;28;20237;-83
2022/03/22 01:47:02;;;;;;;7.90;6.63;;;;;;;;;;5053079;28;21042;-83
2022/03/22 01:49:30;;;;;;;7.40;6.23;;;;;;;;;;5053081;28;20210;-82
2022/03/22 01:51:57;;;;;;;8.30;6.37;;;;;;;;;;5053208;28;20289;-83
2022/03/22 01:54:25;;;;;;;7.40;6.13;;;;;;;;;;5053060;28;20209;-82
2022/03/22 01:56:53;;;;;;;8.40;6.33;;;;;;;;;;5053158;28;20225;-82
2022/03/22 01:59:21;;;;;;;7.10;5.80;;;;;;;;;;5053263;28;20277;-83
2022/03/22 02:07:21;;;;;;;9.00;6.20;;;;;;;;;;5052792;28;20186;-82
2022/03/22 02:09:48;;;;;;;8.20;6.63;;;;;;;;;;5052677;28;20745;-82
2022/03/22 02:12:16;;;;;;;11.70;6.93;;;;;;;;;;5052907;28;20268;-82
2022/03/22 02:14:44;;;;;;;10.20;6.50;;;;;;;;;;5052600;28;20679;-82
2022/03/22 02:17:12;;;;;;;7.83;6.80;;;;;;;;;;5052681;28;20232;-83
2022/03/22 02:19:40;;;;;;;10.10;6.97;;;;;;;;;;5052571;28;20628;-83
2022/03/22 02:22:09;;;;;;;8.50;6.73;;;;;;;;;;5053021;28;20601;-83
2022/03/22 02:24:39;;;;;;;10.87;6.33;;;;;;;;;;5052394;28;20205;-83
2022/03/22 02:27:08;;;;;;;10.63;7.10;;;;;;;;;;5052933;28;20286;-82
2022/03/22 02:29:36;;;;;;;11.17;7.00;;;;;;;;;;5052360;28;20293;-82
2022/03/22 02:32:04;;;;;;;8.93;6.97;;;;;;;;;;5052285;28;20289;-82
2022/03/22 02:34:31;;;;;;;7.73;6.80;;;;;;;;;;5052253;28;20237;-82
2022/03/22 02:36:59;;;;;;;7.90;7.13;;;;;;;;;;5052639;28;20225;-82
2022/03/22 02:39:27;;;;;;;13.80;7.33;;;;;;;;;;5052214;28;20288;-82
2022/03/22 02:41:55;;;;;;;9.93;6.17;;;;;;;;;;5051893;28;20202;-83
2022/03/22 02:44:23;;;;;;;10.27;7.57;;;;;;;;;;5052033;28;20201;-83
2022/03/22 02:46:50;;;;;;;8.87;7.20;;;;;;;;;;5052168;28;20293;-82
2022/03/22 02:49:17;;;;;;;9.53;7.47;;;;;;;;;;5051907;28;20232;-83
2022/03/22 02:51:45;;;;;;;8.93;7.43;;;;;;;;;;5052105;28;20285;-83
2022/03/22 02:54:12;;;;;;;10.20;8.00;;;;;;;;;;5049817;28;20193;-83
2022/03/22 02:56:39;;;;;;;9.83;7.33;;;;;;;;;;5051825;28;20205;-83
2022/03/22 02:59:08;;;;;;;8.80;7.53;;;;;;;;;;5051361;28;20198;-83
2022/03/22 03:01:35;;;;;;;12.93;9.63;;;;;;;;;;5051933;28;20639;-82
2022/03/22 03:04:02;;;;;;;10.90;7.57;;;;;;;;;;5051938;28;20279;-82
2022/03/22 03:06:30;;;;;;;12.13;7.27;;;;;;;;;;5051546;28;20209;-82
2022/03/22 03:08:59;;;;;;;12.33;8.80;;;;;;;;;;5051431;28;20216;-83
2022/03/22 03:11:26;;;;;;;11.73;8.27;;;;;;;;;;5051854;28;20198;-83
2022/03/22 03:16:39;;;;;;;13.60;7.83;;;;;;;;;;5051985;28;20265;-83
2022/03/22 03:19:07;;;;;;;9.93;7.60;;;;;;;;;;5051383;28;20608;-83
2022/03/22 03:21:34;;;;;;;11.00;8.27;;;;;;;;;;5051992;28;20297;-83
2022/03/22 03:24:01;;;;;;;16.47;9.33;;;;;;;;;;5051533;28;20209;-82
2022/03/22 03:26:29;;;;;;;11.47;8.37;;;;;;;;;;5051571;28;20765;-83
2022/03/22 03:28:56;;;;;;;14.77;8.07;;;;;;;;;;5051162;28;20244;-83
2022/03/22 03:31:23;;;;;;;10.03;7.77;;;;;;;;;;5051232;28;20208;-82
2022/03/22 03:33:52;;;;;;;12.70;8.67;;;;;;;;;;5051235;28;20288;-82
2022/03/22 03:36:19;;;;;;;9.90;7.30;;;;;;;;;;5051739;28;20208;-82
2022/03/22 03:38:46;;;;;;;13.10;8.67;;;;;;;;;;5051138;28;20228;-83
2022/03/22 03:47:03;;;;;;;11.00;8.17;;;;;;;;;;5051425;28;20216;-83
2022/03/22 03:49:32;;;;;;;10.07;8.03;;;;;;;;;;5051587;28;20248;-85
2022/03/22 03:51:59;;;;;;;9.90;8.50;;;;;;;;;;5051015;28;20197;-82
2022/03/22 03:54:26;;;;;;;12.27;7.97;;;;;;;;;;5053442;28;20293;-82
2022/03/22 03:56:53;;;;;;;14.23;8.00;;;;;;;;;;5055243;28;20276;-83
2022/03/22 03:59:21;;;;;;;13.70;8.13;;;;;;;;;;5054911;28;20288;-82
2022/03/22 04:01:48;;;;;;;15.03;8.67;;;;;;;;;;5055072;28;20194;-83
2022/03/22 04:04:15;;;;;;;10.90;7.70;;;;;;;;;;5055327;28;20692;-82
2022/03/22 04:06:44;;;;;;;8.57;7.63;;;;;;;;;;5055002;28;20201;-83
2022/03/22 04:09:11;;;;;;;10.40;7.27;;;;;;;;;;5054949;28;20198;-82
2022/03/22 04:11:39;;;;;;;11.33;8.37;;;;;;;;;;5054721;28;20241;-82
2022/03/22 04:14:07;;;;;;;11.23;8.40;;;;;;;;;;5054911;28;20186;-82
2022/03/22 04:16:36;;;;;;;11.37;8.83;;;;;;;;;;5054990;28;20204;-81
2022/03/22 04:19:04;;;;;;;11.60;7.83;;;;;;;;;;5054557;28;20236;-83
2022/03/22 04:21:31;;;;;;;12.73;8.43;;;;;;;;;;5054642;28;20202;-83
2022/03/22 04:24:00;;;;;;;12.00;8.30;;;;;;;;;;5054732;28;20198;-84
2022/03/22 04:26:27;;;;;;;11.57;8.43;;;;;;;;;;5053644;28;20201;-82
2022/03/22 04:34:22;;;;;;;12.00;7.73;;;;;;;;;;5053496;28;20201;-82
2022/03/22 04:36:56;;;;;;;12.13;8.70;;;;;;;;;;5053505;28;20292;-82
2022/03/22 04:39:26;;;;;;;12.53;8.70;;;;;;;;;;5050412;28;20209;-82
2022/03/22 04:41:53;;;;;;;12.03;8.60;;;;;;;;;;5053255;28;20204;-83
2022/03/22 04:44:20;;;;;;;9.97;8.17;;;;;;;;;;5053082;28;20684;-83
2022/03/22 04:46:48;;;;;;;11.20;7.90;;;;;;;;;;5053213;28;20202;-82
2022/03/22 04:49:15;;;;;;;12.27;8.27;;;;;;;;;;5053016;28;20194;-83
2022/03/22 04:57:13;;;;;;;11.17;7.90;;;;;;;;;;5053111;28;20181;-83
2022/03/22 04:59:41;;;;;;;11.60;8.60;;;;;;;;;;5052714;28;20202;-83
2022/03/22 05:02:08;;;;;;;13.77;9.30;;;;;;;;;;5052636;28;20217;-83
2022/03/22 05:04:35;;;;;;;10.97;9.00;;;;;;;;;;5052366;28;20196;-83
2022/03/22 05:07:02;;;;;;;14.97;8.63;;;;;;;;;;5052746;28;20198;-83
2022/03/22 05:12:47;;;;;;;11.27;8.90;;;;;;;;;;5048024;28;20234;-83
2022/03/22 05:15:14;;;;;;;19.40;12.33;;;;;;;;;;5053613;28;20201;-83
2022/03/22 05:17:41;;;;;;;10.93;8.73;;;;;;;;;;5043849;28;20236;-83
2022/03/22 05:20:10;;;;;;;11.93;8.50;;;;;;;;;;5035536;28;20211;-83
2022/03/22 05:22:37;;;;;;;10.93;7.93;;;;;;;;;;5044573;28;20205;-83
2022/03/22 05:25:09;;;;;;;16.70;7.70;;;;;;;;;;5033763;28;20252;-83
2022/03/22 05:27:37;;;;;;;12.00;8.73;;;;;;;;;;5033702;28;20186;-83
2022/03/22 05:30:04;;;;;;;13.87;8.20;;;;;;;;;;5043123;28;20213;-82
2022/03/22 05:32:31;;;;;;;11.43;8.23;;;;;;;;;;5053304;28;20200;-83
2022/03/22 05:34:59;;;;;;;12.83;8.77;;;;;;;;;;5053207;28;20198;-83
2022/03/22 05:37:26;;;;;;;9.67;7.63;;;;;;;;;;5053288;28;20194;-84
2022/03/22 05:39:53;;;;;;;11.53;7.80;;;;;;;;;;5053515;28;20281;-83
2022/03/22 05:42:22;;;;;;;12.60;8.27;;;;;;;;;;5045668;28;20674;-84
2022/03/22 05:44:49;;;;;;;13.03;9.57;;;;;;;;;;5033198;28;20206;-83
2022/03/22 05:47:17;;;;;;;10.03;8.17;;;;;;;;;;5033405;28;20194;-83
2022/03/22 05:49:44;;;;;;;12.23;8.47;;;;;;;;;;5033163;28;20191;-83
2022/03/22 05:52:11;;;;;;;10.17;7.87;;;;;;;;;;5033090;28;20206;-83
2022/03/22 05:54:38;;;;;;;10.67;7.73;;;;;;;;;;5033136;28;20197;-83
2022/03/22 05:57:06;;;;;;;13.40;9.67;;;;;;;;;;5033217;28;20691;-83
2022/03/22 05:59:34;;;;;;;10.83;7.63;;;;;;;;;;5032920;28;20230;-83
2022/03/22 06:02:02;;;;;;;11.37;8.03;;;;;;;;;;5033020;28;20191;-83
2022/03/22 06:04:29;;;;;;;15.57;9.03;;;;;;;;;;5032989;28;20310;-83
2022/03/22 06:06:56;;;;;;;11.70;8.50;;;;;;;;;;5033019;28;20682;-84
2022/03/22 06:09:23;;;;;;;11.87;8.87;;;;;;;;;;5032793;28;20582;-83
2022/03/22 06:11:50;;;;;;;13.63;8.77;;;;;;;;;;5032827;28;20238;-83
2022/03/22 06:14:17;;;;;;;10.03;8.30;;;;;;;;;;5032636;28;20199;-83
2022/03/22 06:16:46;;;;;;;11.00;9.27;;;;;;;;;;5032326;28;20209;-84
2022/03/22 06:19:13;;;;;;;9.93;6.97;;;;;;;;;;5032991;28;20600;-83
2022/03/22 06:21:40;;;;;;;14.37;7.83;;;;;;;;;;5038419;28;20206;-83
2022/03/22 06:24:08;;;;;;;10.80;7.60;;;;;;;;;;5049332;28;20201;-84
2022/03/22 06:26:35;;;;;;;9.13;7.20;;;;;;;;;;5052638;28;20205;-83
2022/03/22 06:29:02;;;;;;;9.63;7.77;;;;;;;;;;5040484;28;20202;-83
2022/03/22 06:31:33;;;;;;;10.27;8.27;;;;;;;;;;5052081;28;20697;-84
2022/03/22 06:34:02;;;;;;;10.43;7.07;;;;;;;;;;5052325;28;20201;-83
2022/03/22 06:36:29;;;;;;;16.43;10.73;;;;;;;;;;5052266;28;20255;-84
2022/03/22 06:38:56;;;;;;;12.53;8.37;;;;;;;;;;5052116;28;20221;-84
2022/03/22 06:41:23;;;;;;;17.67;11.77;;;;;;;;;;5052527;28;20202;-84
2022/03/22 06:43:50;;;;;;;11.30;8.57;;;;;;;;;;5052466;28;20208;-83
2022/03/22 06:46:18;;;;;;;17.70;10.00;;;;;;;;;;5051276;28;20206;-83
2022/03/22 06:48:45;;;;;;;17.30;10.87;;;;;;;;;;5048149;28;20589;-83
2022/03/22 06:51:14;;;;;;;11.03;8.80;;;;;;;;;;5052401;28;20194;-84
2022/03/22 06:53:41;;;;;;;13.63;8.13;;;;;;;;;;5051862;28;20208;-84
2022/03/22 06:56:08;;;;;;;15.67;9.23;;;;;;;;;;5051706;28;20194;-84
2022/03/22 06:58:35;;;;;;;13.43;8.33;;;;;;;;;;5052074;28;20232;-84
2022/03/22 07:01:02;;;;;;;11.37;8.87;;;;;;;;;;5051991;28;20196;-84
2022/03/22 07:03:29;;;;;;;13.50;9.03;;;;;;;;;;5052064;28;20240;-83
2022/03/22 07:05:57;;;;;;;9.93;8.33;;;;;;;;;;5052136;28;20255;-84
2022/03/22 07:08:26;;;;;;;12.53;8.53;;;;;;;;;;5051786;28;20190;-83
2022/03/22 07:13:38;;;;;;;9.80;7.70;;;;;;;;;;5049907;28;20213;-83
2022/03/22 07:16:05;;;;;;;14.53;9.13;;;;;;;;;;5050869;28;20285;-84
2022/03/22 07:18:33;;;;;;;17.20;10.33;;;;;;;;;;5051775;28;20218;-83
2022/03/22 07:21:04;;;;;;;12.80;9.67;;;;;;;;;;5051654;28;20193;-84
2022/03/22 07:23:33;;;;;;;12.30;9.03;;;;;;;;;;5051596;28;20189;-83
2022/03/22 07:26:00;;;;;;;12.43;10.07;;;;;;;;;;5051376;28;20193;-83
2022/03/22 07:28:27;;;;;;;14.47;7.73;;;;;;;;;;5052343;28;20193;-84
2022/03/22 07:30:55;;;;;;;16.83;7.87;;;;;;;;;;5056050;28;20202;-84
2022/03/22 07:33:22;;;;;;;11.80;7.67;;;;;;;;;;5055833;28;20203;-84
2022/03/22 07:35:49;;;;;;;10.80;7.83;;;;;;;;;;5055445;28;20190;-84
2022/03/22 07:38:16;;;;;;;12.63;8.43;;;;;;;;;;5055771;28;20194;-84
2022/03/22 07:40:45;;;;;;;8.30;6.80;;;;;;;;;;5055581;28;20205;-83
2022/03/22 07:43:12;;;;;;;13.77;8.00;;;;;;;;;;5055565;28;20201;-83
2022/03/22 07:45:39;;;;;;;14.90;8.20;;;;;;;;;;5055259;28;20208;-84
2022/03/22 07:48:07;;;;;;;10.77;7.97;;;;;;;;;;5055718;28;20323;-85
2022/03/22 07:53:19;;;;;;;14.07;8.70;;;;;;;;;;5055439;28;20184;-85
2022/03/22 07:55:48;;;;;;;15.83;9.37;;;;;;;;;;5055241;28;20202;-83
2022/03/22 07:58:15;;;;;;;13.63;8.27;;;;;;;;;;5055314;28;20198;-83
2022/03/22 08:00:42;;;;;;;12.77;8.53;;;;;;;;;;5055528;28;20576;-83
2022/03/22 08:03:13;;;;;;;11.47;7.53;;;;;;;;;;5055105;28;20205;-83
2022/03/22 08:05:41;;;;;;;9.30;8.07;;;;;;;;;;5055102;28;20190;-84
2022/03/22 08:08:08;;;;;;;10.23;8.03;;;;;;;;;;5055273;28;20208;-85
2022/03/22 08:10:36;;;;;;;9.53;7.10;;;;;;;;;;5055023;28;20780;-83
2022/03/22 08:13:06;;;;;;;13.37;8.70;;;;;;;;;;5054650;28;20234;-84
2022/03/22 08:15:33;;;;;;;11.80;7.53;;;;;;;;;;5054874;28;20198;-84
2022/03/22 08:18:00;;;;;;;13.07;8.03;;;;;;;;;;5054963;28;20198;-83
2022/03/22 08:20:30;;;;;;;9.40;8.43;;;;;;;;;;5054727;28;20230;-84
2022/03/22 08:22:59;;;;;;;10.20;7.40;;;;;;;;;;5054633;28;20280;-83
2022/03/22 08:25:28;;;;;;;14.37;7.47;;;;;;;;;;5054647;28;20209;-83
2022/03/22 08:27:56;;;;;;;8.50;7.50;;;;;;;;;;5055101;28;20198;-84
2022/03/22 08:30:26;;;;;;;9.67;7.27;;;;;;;;;;5054578;28;20190;-84
2022/03/22 08:32:54;;;;;;;11.90;7.53;;;;;;;;;;5054428;28;20201;-85
2022/03/22 08:35:23;;;;;;;9.13;6.83;;;;;;;;;;5054857;28;20198;-85
2022/03/22 08:37:51;;;;;;;11.40;6.57;;;;;;;;;;5054569;28;20202;-84
2022/03/22 08:40:18;;;;;;;10.80;7.33;;;;;;;;;;5053982;28;20225;-84
2022/03/22 08:42:46;;;;;;;12.50;8.03;;;;;;;;;;5054784;28;20674;-84
2022/03/22 08:45:14;;;;;;;12.03;7.77;;;;;;;;;;5054061;28;20194;-84
2022/03/22 08:47:45;;;;;;;12.83;7.23;;;;;;;;;;5054563;28;20197;-84
2022/03/22 08:50:14;;;;;;;11.47;7.17;;;;;;;;;;5054560;28;20269;-84
2022/03/22 08:52:41;;;;;;;12.47;7.03;;;;;;;;;;5054272;28;20205;-84
2022/03/22 08:55:12;;;;;;;7.73;6.50;;;;;;;;;;5054108;28;20717;-84
2022/03/22 08:57:40;;;;;;;9.70;7.80;;;;;;;;;;5054348;28;20198;-84
2022/03/22 09:00:10;;;;;;;9.73;7.10;;;;;;;;;;5053948;28;20226;-85
2022/03/22 09:02:37;;;;;;;10.77;7.03;;;;;;;;;;5054472;28;20577;-85
2022/03/22 09:07:51;;;;;;;10.83;6.93;;;;;;;;;;5054269;28;20193;-85
2022/03/22 09:10:20;;;;;;;10.07;7.77;;;;;;;;;;5053752;28;20194;-85
2022/03/22 09:12:48;;;;;;;8.50;7.27;;;;;;;;;;5053770;28;20240;-85
2022/03/22 09:15:15;;;;;;;9.60;6.90;;;;;;;;;;5053725;28;20678;-85
2022/03/22 09:17:43;;;;;;;13.17;7.70;;;;;;;;;;5054184;28;20668;-85
2022/03/22 09:20:13;;;;;;;8.53;6.67;;;;;;;;;;5053584;28;20232;-84
2022/03/22 09:22:40;;;;;;;7.50;6.73;;;;;;;;;;5053911;28;20201;-84
2022/03/22 09:25:09;;;;;;;9.87;7.33;;;;;;;;;;5053491;28;20646;-84
2022/03/22 09:27:36;;;;;;;10.73;6.93;;;;;;;;;;5053863;28;20206;-85
2022/03/22 09:30:04;;;;;;;11.63;7.23;;;;;;;;;;5053460;28;20194;-85
2022/03/22 09:32:31;;;;;;;8.03;6.67;;;;;;;;;;5053828;28;20605;-84
2022/03/22 09:34:59;;;;;;;10.93;7.27;;;;;;;;;;5053687;28;20201;-85
2022/03/22 09:37:28;;;;;;;8.07;6.13;;;;;;;;;;5053616;28;20670;-85
2022/03/22 09:39:57;;;;;;;9.03;6.87;;;;;;;;;;5053352;28;20226;-85
2022/03/22 09:42:24;;;;;;;9.70;7.53;;;;;;;;;;5053679;28;20626;-85
2022/03/22 09:44:52;;;;;;;11.03;7.27;;;;;;;;;;5053089;28;20232;-85
2022/03/22 09:47:19;;;;;;;9.97;6.47;;;;;;;;;;5053681;28;20221;-84
2022/03/22 09:49:47;;;;;;;9.93;7.13;;;;;;;;;;5053099;28;20194;-84
2022/03/22 09:52:15;;;;;;;9.40;7.07;;;;;;;;;;5052448;28;20201;-84
2022/03/22 09:54:43;;;;;;;17.53;7.70;;;;;;;;;;5053197;28;20677;-84
2022/03/22 09:57:23;;;;;;;14.30;8.00;;;;;;;;;;5053265;28;20678;-84
2022/03/22 09:59:50;;;;;;;15.93;7.73;;;;;;;;;;5052879;28;20221;-84
2022/03/22 10:02:28;;;;;;;10.07;8.20;;;;;;;;;;5053084;28;20199;-84
2022/03/22 10:04:55;;;;;;;12.57;7.17;;;;;;;;;;5052630;28;20243;-84
2022/03/22 10:07:23;;;;;;;10.43;7.80;;;;;;;;;;5053057;28;20213;-84
2022/03/22 10:09:56;;;;;;;11.37;7.30;;;;;;;;;;5052864;28;20201;-84
2022/03/22 10:12:29;;;;;;;10.43;7.37;;;;;;;;;;5052828;28;20324;-84
2022/03/22 10:15:08;;;;;;;10.23;8.63;;;;;;;;;;5052651;28;20194;-84
2022/03/22 10:17:36;;;;;;;11.87;7.90;;;;;;;;;;5052851;28;20631;-84
2022/03/22 10:20:05;;;;;;;9.17;7.03;;;;;;;;;;5052390;28;20228;-84
2022/03/22 10:22:33;;;;;;;18.60;8.57;;;;;;;;;;5052722;28;20197;-84
2022/03/22 10:25:04;;;;;;;8.07;6.70;;;;;;;;;;5052841;28;20320;-84
2022/03/22 10:27:33;;;;;;;15.03;8.80;;;;;;;;;;5052432;28;20655;-85
2022/03/22 10:30:01;;;;;;;14.10;8.33;;;;;;;;;;5052488;28;20251;-84
2022/03/22 10:32:33;;;;;;;10.33;7.87;;;;;;;;;;5052506;28;20201;-85
2022/03/22 10:35:13;;;;;;;17.27;8.27;;;;;;;;;;5052099;28;20195;-84
2022/03/22 10:37:43;;;;;;;13.83;8.23;;;;;;;;;;5052729;28;20561;-85
2022/03/22 10:40:24;;;;;;;12.37;9.27;;;;;;;;;;5052714;28;20633;-85
2022/03/22 10:42:53;;;;;;;9.83;8.20;;;;;;;;;;5052204;28;20181;-85
2022/03/22 10:45:21;;;;;;;9.97;7.33;;;;;;;;;;5052433;28;20203;-85
2022/03/22 10:47:48;;;;;;;13.27;8.30;;;;;;;;;;5052303;28;20201;-84
2022/03/22 10:50:15;;;;;;;14.37;8.17;;;;;;;;;;5051812;28;20207;-85
2022/03/22 10:52:51;;;;;;;11.00;7.37;;;;;;;;;;5052425;28;20204;-84
2022/03/22 10:55:20;;;;;;;9.50;6.50;;;;;;;;;;5052132;28;20204;-85
2022/03/22 10:57:53;;;;;;;10.33;7.30;;;;;;;;;;5051844;28;20198;-85
2022/03/22 11:00:21;;;;;;;9.53;6.50;;;;;;;;;;5051885;28;20209;-84
2022/03/22 11:02:53;;;;;;;8.20;6.17;;;;;;;;;;5052054;28;20206;-84
2022/03/22 11:05:21;;;;;;;8.77;6.10;;;;;;;;;;5051856;28;20194;-84
2022/03/22 11:07:49;;;;;;;9.47;5.97;;;;;;;;;;5052098;28;20205;-85
2022/03/22 11:10:18;;;;;;;12.67;6.57;;;;;;;;;;5051505;28;20203;-85
2022/03/22 11:12:45;;;;;;;11.27;5.57;;;;;;;;;;5051815;28;20236;-84
2022/03/22 11:15:15;;;;;;;8.97;6.63;;;;;;;;;;5051712;28;20212;-85
2022/03/22 11:17:43;;;;;;;8.53;6.90;;;;;;;;;;5051774;28;20556;-84
2022/03/22 11:20:13;;;;;;;7.47;6.67;;;;;;;;;;5051417;28;20264;-85
2022/03/22 11:22:51;;;;;;;8.87;6.40;;;;;;;;;;5051735;28;20631;-84
2022/03/22 11:25:20;;;;;;;13.80;7.27;;;;;;;;;;5051599;28;20188;-85
2022/03/22 11:27:58;;;;;;;10.10;6.50;;;;;;;;;;5051901;28;20197;-85
2022/03/22 11:30:29;;;;;;;8.57;6.37;;;;;;;;;;5051900;28;20219;-85
2022/03/22 11:35:53;;;;;;;9.97;6.57;;;;;;;;;;5051445;28;20266;-85
2022/03/22 11:38:45;;;;;;;9.73;6.50;;;;;;;;;;5051676;28;20655;-85
2022/03/22 11:44:11;;;;;;;8.77;5.93;;;;;;;;;;5051674;28;20177;-84
2022/03/22 11:46:40;;;;;;;8.47;6.00;;;;;;;;;;5051580;28;20237;-85
2022/03/22 11:49:18;;;;;;;7.93;5.47;;;;;;;;;;5051411;28;20674;-85
2022/03/22 11:51:54;;;;;;;14.87;8.27;;;;;;;;;;5051641;28;20182;-85
2022/03/22 11:54:22;;;;;;;18.80;12.23;;;;;;;;;;5051374;28;20654;-84
2022/03/22 11:56:51;;;;;;;10.93;6.90;;;;;;;;;;5051574;28;20198;-84
2022/03/22 11:59:19;;;;;;;66.63;31.90;;;;;;;;;;5051142;28;20202;-85
2022/03/22 12:02:05;;;;;;;7.20;6.50;;;;;;;;;;5051804;28;20662;-85
2022/03/22 12:04:42;;;;;;;12.67;6.00;;;;;;;;;;5051293;28;20189;-85
2022/03/22 12:07:11;;;;;;;5.87;4.57;;;;;;;;;;5051433;28;20193;-85
2022/03/22 12:09:43;;;;;;;9.77;5.03;;;;;;;;;;5051033;28;20209;-85
2022/03/22 12:12:15;;;;;;;11.63;5.07;;;;;;;;;;5051214;28;20234;-85
2022/03/22 12:14:45;;;;;;;8.27;5.60;;;;;;;;;;5052244;28;20186;-84
2022/03/22 12:17:14;;;;;;;5.30;4.17;;;;;;;;;;5054954;28;20197;-85
2022/03/22 12:19:41;;;;;;;10.73;4.47;;;;;;;;;;5054830;28;20197;-85
2022/03/22 12:22:09;;;;;;;8.27;4.23;;;;;;;;;;5054957;28;20201;-85
2022/03/22 12:24:37;;;;;;;8.27;4.27;;;;;;;;;;5055082;28;20201;-86
2022/03/22 12:27:05;;;;;;;5.70;4.63;;;;;;;;;;5054659;28;20296;-85
2022/03/22 12:29:37;;;;;;;6.07;3.93;;;;;;;;;;5054900;28;20206;-85
2022/03/22 12:32:07;;;;;;;9.30;5.37;;;;;;;;;;5054965;28;20561;-85
2022/03/22 12:34:39;;;;;;;6.77;4.37;;;;;;;;;;5054568;28;20198;-85
2022/03/22 12:37:08;;;;;;;7.73;5.23;;;;;;;;;;5054501;28;20206;-85
2022/03/22 12:39:37;;;;;;;11.03;3.73;;;;;;;;;;5054730;28;20194;-85
2022/03/22 12:42:05;;;;;;;8.37;4.03;;;;;;;;;;5054637;28;20231;-85
2022/03/22 12:44:33;;;;;;;6.73;5.07;;;;;;;;;;5054719;28;20220;-85
2022/03/22 12:47:00;;;;;;;11.70;5.27;;;;;;;;;;5054350;28;20198;-85
2022/03/22 12:49:27;;;;;;;11.23;6.43;;;;;;;;;;5054363;28;20205;-85
2022/03/22 12:51:56;;;;;;;8.50;5.53;;;;;;;;;;5054419;28;20288;-85
2022/03/22 12:54:24;;;;;;;13.90;5.63;;;;;;;;;;5054193;28;20288;-85
2022/03/22 12:56:51;;;;;;;9.23;4.90;;;;;;;;;;5054184;28;20260;-85
2022/03/22 12:59:20;;;;;;;11.13;4.63;;;;;;;;;;5054427;28;20557;-86
2022/03/22 13:01:56;;;;;;;16.80;6.83;;;;;;;;;;5054163;28;20226;-86
2022/03/22 13:04:25;;;;;;;9.20;6.00;;;;;;;;;;5053987;28;20650;-85
2022/03/22 13:07:02;;;;;;;14.50;5.63;;;;;;;;;;5054120;28;20237;-85
2022/03/22 13:12:15;;;;;;;10.00;5.03;;;;;;;;;;5053902;28;20240;-85
2022/03/22 13:17:29;;;;;;;9.97;4.80;;;;;;;;;;5054362;28;20177;-85
2022/03/22 13:19:57;;;;;;;8.33;5.53;;;;;;;;;;5053610;28;20666;-85
2022/03/22 13:22:29;;;;;;;12.33;7.07;;;;;;;;;;5053835;28;20206;-85
2022/03/22 13:25:09;;;;;;;7.63;4.87;;;;;;;;;;5054163;28;20186;-85
2022/03/22 13:27:37;;;;;;;7.83;4.97;;;;;;;;;;5052782;28;20186;-85
2022/03/22 13:30:05;;;;;;;7.00;4.80;;;;;;;;;;5053486;28;20198;-85
2022/03/22 13:32:34;;;;;;;15.07;5.63;;;;;;;;;;5053747;28;20209;-85
2022/03/22 13:35:04;;;;;;;17.20;7.30;;;;;;;;;;5053440;28;20224;-85
2022/03/22 13:37:46;;;;;;;9.33;5.63;;;;;;;;;;5053416;28;20190;-85
2022/03/22 13:40:13;;;;;;;8.90;4.53;;;;;;;;;;5053422;28;20215;-85
2022/03/22 13:42:55;;;;;;;12.10;5.33;;;;;;;;;;5053415;28;20208;-85
2022/03/22 13:45:23;;;;;;;10.73;5.17;;;;;;;;;;5053095;28;20186;-85
2022/03/22 13:47:52;;;;;;;9.53;4.57;;;;;;;;;;5053768;28;20254;-85
2022/03/22 13:50:21;;;;;;;10.50;4.23;;;;;;;;;;5053494;28;20598;-85
2022/03/22 13:53:04;;;;;;;9.63;4.77;;;;;;;;;;5053299;28;20201;-85
2022/03/22 13:55:32;;;;;;;10.40;5.07;;;;;;;;;;5053072;28;20186;-85
2022/03/22 13:58:01;;;;;;;8.20;4.53;;;;;;;;;;5053184;28;20194;-85
2022/03/22 14:00:28;;;;;;;13.60;5.03;;;;;;;;;;5052957;28;20702;-85
2022/03/22 14:02:56;;;;;;;11.60;5.10;;;;;;;;;;5053185;28;20202;-85
2022/03/22 14:05:23;;;;;;;6.57;4.37;;;;;;;;;;5052826;28;20670;-85
2022/03/22 14:07:52;;;;;;;14.03;5.07;;;;;;;;;;5052878;28;20688;-85
2022/03/22 14:10:20;;;;;;;8.03;4.17;;;;;;;;;;5053043;28;20205;-85
2022/03/22 14:12:48;;;;;;;8.77;6.10;;;;;;;;;;5052758;28;20320;-85
2022/03/22 14:15:16;;;;;;;8.23;5.07;;;;;;;;;;5052218;28;20194;-85
2022/03/22 14:17:45;;;;;;;7.97;3.80;;;;;;;;;;5053099;28;20193;-84
2022/03/22 14:20:13;;;;;;;8.30;4.30;;;;;;;;;;5052425;28;20288;-85
2022/03/22 14:22:42;;;;;;;10.13;4.80;;;;;;;;;;5052762;28;20202;-85
2022/03/22 14:25:12;;;;;;;7.57;3.57;;;;;;;;;;5052757;28;20198;-85
2022/03/22 14:27:39;;;;;;;11.13;4.37;;;;;;;;;;5052591;28;20244;-85
2022/03/22 14:30:14;;;;;;;7.83;3.30;;;;;;;;;;5052178;28;20198;-84
2022/03/22 14:32:41;;;;;;;7.43;4.00;;;;;;;;;;5052542;28;20185;-85
2022/03/22 14:37:53;;;;;;;7.53;3.03;;;;;;;;;;5052198;28;20187;-85
2022/03/22 14:40:22;;;;;;;5.53;3.53;;;;;;;;;;5052420;28;20297;-85
2022/03/22 14:42:50;;;;;;;8.63;3.77;;;;;;;;;;5052186;28;20204;-85
2022/03/22 14:45:18;;;;;;;7.73;4.53;;;;;;;;;;5052401;28;20204;-85
2022/03/22 14:47:49;;;;;;;5.67;4.30;;;;;;;;;;5052275;28;20294;-85
2022/03/22 14:50:16;;;;;;;6.33;3.63;;;;;;;;;;5051865;28;20185;-85
2022/03/22 14:55:30;;;;;;;10.60;4.97;;;;;;;;;;5052143;28;20245;-85
2022/03/22 15:00:42;;;;;;;11.50;3.73;;;;;;;;;;5051757;28;20287;-85
2022/03/22 15:03:10;;;;;;;9.67;5.17;;;;;;;;;;5052081;28;20200;-85
2022/03/22 15:05:42;;;;;;;8.50;5.30;;;;;;;;;;5051780;28;20194;-85
2022/03/22 15:08:11;;;;;;;8.37;4.40;;;;;;;;;;5052318;28;20569;-85
2022/03/22 15:10:42;;;;;;;10.67;6.63;;;;;;;;;;5051774;28;20210;-85
2022/03/22 15:13:10;;;;;;;9.77;4.37;;;;;;;;;;5051751;28;20285;-84
2022/03/22 15:15:38;;;;;;;3.50;2.83;;;;;;;;;;5051751;28;20198;-84
2022/03/22 15:18:07;;;;;;;6.70;4.60;;;;;;;;;;5052155;28;20202;-84
2022/03/22 15:20:35;;;;;;;6.43;3.50;;;;;;;;;;5051946;28;20275;-84
2022/03/22 15:23:02;;;;;;;7.10;2.77;;;;;;;;;;5051577;28;20201;-84
2022/03/22 15:25:30;;;;;;;4.83;2.47;;;;;;;;;;5051576;28;20197;-84
2022/03/22 15:27:58;;;;;;;9.60;4.13;;;;;;;;;;5052002;28;20255;-84
2022/03/22 15:30:26;;;;;;;13.20;3.93;;;;;;;;;;5051540;28;20201;-84
2022/03/22 15:32:53;;;;;;;7.37;2.87;;;;;;;;;;5051395;28;20256;-84
2022/03/22 15:35:21;;;;;;;9.10;3.13;;;;;;;;;;5051603;28;20210;-84
2022/03/22 15:37:48;;;;;;;42.43;27.33;;;;;;;;;;5051684;28;20194;-84
2022/03/22 15:40:16;;;;;;;7.53;5.90;;;;;;;;;;5051616;28;20226;-84